LPPTSBPA

Guest
Details From LPPT - Lisboa
To SBPA - Salgado Filho
Flight Number -
Tags Generated
Created
Modified
Stats Distance 4,754 nm / 8,804 km
Max Altitude 0 ft / 0 m
Waypoints 7
Social Downloads 1
Likes 0
Share VATSIM

Download

Looking for another format? Having issues loading an existing format? Contact us
Advertisement - Login to hide

Notes

Generated

Route

LPPT IREDO SORAI MAE GLOVE COA SBPA

ID Type Via Altitude Latitude Longitude Leg Dist Tot Dist Heading (true) Name
O LPPT APT - 0 ft / 0 m 38.78624˚ -9.13721˚ - 0 nm - -
IREDO FIX - 0 ft / 0 m 17.71833˚ -24.30333˚ 1493 nm 1493 nm 216° / 209° -
SORAI FIX - 0 ft / 0 m -20.76700˚ -44.95167˚ 2611 nm 4104 nm 209° / 209° -
MAE NDB - 0 ft / 0 m -23.50683˚ -46.63650˚ 189 nm 4294 nm 209° / 210° MARTE NDB
GLOVE FIX - 0 ft / 0 m -26.75117˚ -48.79500˚ 227 nm 4521 nm 211° / 212° -
COA VOR - 0 ft / 0 m -29.95016˚ -51.14590˚ 228 nm 4750 nm 212° / 213° CANOAS VOR-DME
O SBPA APT - 0 ft / 0 m -29.99414˚ -51.18327˚ 3 nm 4753 nm 216° / 216° -

Altitude Profile

Advertisement - Login to hide

Weather


0- 5 10 15 20 25 30 35+ Temperature / ° C

Clouds and Precipitation
Forecast for 2017-12-11 12:00 UTC. Updated 22 minutes ago

Ground ~20,000 ft ~40,000 ft Winds

LPPT

Details ICAO LPPT (LIS)
Name Lisboa
Region Portugal
Timezone Europe/Lisbon (UTC+0.0)
Stats Elevation 374 ft / 114 m (AMSL)
Location 38.778559° -9.135146°
Runways 2
Magnetic Variation 2.365° W

METAR

LPPT 110730Z 30012KT 9999 FEW025 SCT035 11/06 Q1002 WS R21

Decode

TAF

TAF LPPT 110500Z 1106/1212 30013KT 9999 SCT018 TEMPO 1106/1115 30018G30KT 5000 SHRAGS BKN015 FEW025CB PROB30 TEMPO 1106/1112 3000 TSRAGS FEW018CB BECMG 1115/1118 34010KT

Decode

Departure Runways

ID Width Length Bearing (true) Bearing (mag) Surface Threshold Offset Overrun Length
03 148 ft / 45 m 12,518 ft / 3,815 m 22.70° 25.07° Asphalt 296 ft / 90 m 0 ft / 0 m
17 148 ft / 45 m 7,922 ft / 2,415 m 168.38° 170.75° Asphalt 0 ft / 0 m 0 ft / 0 m
21 148 ft / 45 m 12,518 ft / 3,815 m 202.72° 205.09° Asphalt 1,969 ft / 600 m 0 ft / 0 m
35 148 ft / 45 m 7,922 ft / 2,415 m 348.38° 350.75° Asphalt 492 ft / 150 m 0 ft / 0 m

SBPA

Details ICAO SBPA (POA)
Name Salgado Filho
Region Brazil
Timezone America/Sao_Paulo (UTC-2.0)
Stats Elevation 11 ft / 3 m (AMSL)
Location -29.994428° -51.171426°
Runways 1
Magnetic Variation 16.877° W

METAR

SBPA 110700Z 21006KT CAVOK 20/16 Q1007

Decode

TAF

Not found

Destination Runways

ID Width Length Bearing (true) Bearing (mag) Surface Threshold Offset Overrun Length
11 138 ft / 42 m 7,487 ft / 2,282 m 91.60° 108.48° Asphalt 0 ft / 0 m 230 ft / 70 m
29 138 ft / 42 m 7,487 ft / 2,282 m 271.59° 288.47° Asphalt 0 ft / 0 m 197 ft / 60 m

Approach Navaids

Runway Type Ident Frequency Range Bearing (true) Bearing (mag) Slope Elevation
11 Localiser IPA 110.30 MHz 18 nm / 33 km 90.92° 107.80° - 11 ft / 3 m (AMSL)
11 Glidescope IPA 110.30 MHz 10 nm / 19 km 91.60° 108.47° 3.00° 11 ft / 3 m (AMSL)

Popular Alternatives